Arp, Texas
Current Conditions -  °F | °C
As of 7:35 AM on Friday 31 Oct 2014 (Local Time) from KRFI Reporting Station
Clear Clear  
Wind Chill: 55°   Ceiling: Unl
Heat Index: 55°   Visibility: 10mi
Dew Point: 44°   Wind: 6mph
Humidity: 67%   Direction: 350°N
Pressure: 30.18"   Gusts: NA
Location:  32.23°N, 95.06°W
Report Text: KRFI 311235Z AUTO 35005KT 10SM CLR 13/07 A3018 RMK AO2 T01250065
Loading
Personal Weather Stations






























Interactive Weather Map
Tropical Storm Tracking
New forecast layout! Learn more

10-Day Weather Forecast

Advertisements
Track Severe Weather on mobile